Albemarle, NC (28001)

4:32 AM EDT on August 31, 2015 (GMT -0400)
Endy Community | | Change Station
CLOSE
Current Station
Personal Weather Station
Location: Albemarle, NC
Elevation: 486 ft
Nearby Weather Stations

Elev 486 ft 35.30 °N, 80.25 °W | Updated 2 minutes ago

Overcast
Overcast
67.3 °F
Feels Like 67.3 °F
N
1.1
Wind Variable Wind from West

Today
High -- | Low -- °F
--% Chance of Precip.
Yesterday
High -- | Low -- °F
Precip. -- in
6:52 AM 7:49 PM
Waning Gibbous, 96% visible
Pressure 30.14 in
Visibility 7.0 miles
Clouds Scattered Clouds 400 ft
Overcast 900 ft
Dew Point 65 °F
Humidity 93%
Rainfall 0.27 in
Snow Depth Not available.
UV 0 out of 12
Pollen 6.50 out of 12
Air Quality Not available.
Flu Activity Not available.
METAR KVUJ 310815Z AUTO 36003KT 7SM RA SCT004 OVC009 20/20 A3014 RMK AO2 P0001
Pressure 30.14 in
Visibility 7.0 miles
Clouds Scattered Clouds 400 ft
Overcast 900 ft
Dew Point 65 °F
Humidity 93%
Rainfall 0.27 in
Snow Depth Not available.
UV 0 out of 12
Pollen 6.50 out of 12
Air Quality Not available.
Flu Activity Not available.
METAR KVUJ 310815Z AUTO 36003KT 7SM RA SCT004 OVC009 20/20 A3014 RMK AO2 P0001

10-Day Weather Forecast

×

Almanac

Astronomy

Aug. 31, 2015 Rise Set
Actual Time
Civil Twilight
Nautical Twilight
Astronomical Twilight
Moon
Length of Visible Light
Length of Day
Tomorrow will be .
, % of the Moon is Illuminated

Today's Extremes

State Highs State Lows

Community

WunderPhotos

Upload Photos

1,851,220 photos uploaded!

WunderBlogs® & News

Nearby

Air Quality

  Air Quality AQ Index Pollutant
Not available.

Snow Depth

Station Depth Elevation

Earthquake Activity

City Distance Mag. Time & Date
Minimum magnitude displayed is 2.5.

Coastal Water Temperatures

Place Temperature

Stations

Nearby Weather Stations

Station Location Temp. Windchill Dew Point Humidity Wind Precip. Elev Updated Type